createdAt,value
2022-12-05T00:00:34.949Z,4.70
2022-12-05T00:03:07.427Z,4.70
2022-12-05T00:05:43.213Z,4.70
2022-12-05T00:08:26.741Z,4.70
2022-12-05T00:10:59.620Z,4.60
2022-12-05T00:13:28.521Z,4.50
2022-12-05T00:16:04.342Z,4.50
2022-12-05T00:18:36.086Z,4.60
2022-12-05T00:21:05.712Z,4.60
2022-12-05T00:23:39.289Z,4.70
2022-12-05T00:26:06.655Z,4.60
2022-12-05T00:28:56.354Z,4.70
2022-12-05T00:31:34.568Z,4.70
2022-12-05T00:34:03.739Z,4.60
2022-12-05T00:36:34.026Z,4.60
2022-12-05T00:39:07.376Z,4.60
2022-12-05T00:41:45.940Z,4.60
2022-12-05T00:44:30.919Z,4.60
2022-12-05T00:46:58.064Z,4.60
2022-12-05T00:49:25.094Z,4.60
2022-12-05T00:51:57.577Z,4.50
2022-12-05T00:54:26.087Z,4.60
2022-12-05T00:56:56.254Z,4.60
2022-12-05T00:59:29.711Z,4.60
2022-12-05T01:01:57.154Z,4.60
2022-12-05T01:04:27.292Z,4.60
2022-12-05T01:06:58.767Z,4.50
2022-12-05T01:09:43.714Z,4.50
2022-12-05T01:12:10.701Z,4.60
2022-12-05T01:14:37.962Z,4.60
2022-12-05T01:17:08.111Z,4.60
2022-12-05T01:19:35.199Z,4.70
2022-12-05T01:22:04.977Z,4.60
2022-12-05T01:24:33.823Z,4.60
2022-12-05T01:27:02.382Z,4.60
2022-12-05T01:29:29.427Z,4.50
2022-12-05T01:31:58.868Z,4.50
2022-12-05T01:34:31.822Z,4.60
2022-12-05T01:37:04.766Z,4.60
2022-12-05T01:39:34.226Z,4.50
2022-12-05T01:42:04.932Z,4.50
2022-12-05T01:45:06.287Z,4.50
2022-12-05T01:47:37.630Z,4.50
2022-12-05T01:50:07.919Z,4.50
2022-12-05T01:52:42.696Z,4.60
2022-12-05T01:55:17.422Z,4.60
2022-12-05T01:57:48.856Z,4.60
2022-12-05T02:00:18.758Z,4.60
2022-12-05T02:02:51.905Z,4.70
2022-12-05T02:05:27.444Z,4.70
2022-12-05T02:08:02.560Z,4.60
2022-12-05T02:10:37.267Z,4.70
2022-12-05T02:13:35.375Z,4.70
2022-12-05T02:16:28.264Z,4.50
2022-12-05T02:19:31.609Z,4.50
2022-12-05T02:22:33.288Z,4.50
2022-12-05T02:25:40.778Z,4.50
2022-12-05T02:28:45.073Z,4.60
2022-12-05T02:31:25.038Z,4.60
2022-12-05T02:34:00.742Z,4.60
2022-12-05T02:36:41.066Z,4.60
2022-12-05T02:39:19.950Z,4.70
2022-12-05T02:41:52.847Z,4.60
2022-12-05T02:44:36.530Z,4.50
2022-12-05T02:47:06.936Z,4.60
2022-12-05T02:49:42.983Z,4.60
2022-12-05T02:52:21.423Z,4.50
2022-12-05T02:54:54.272Z,4.50
2022-12-05T02:57:24.646Z,4.60
2022-12-05T02:59:51.897Z,4.60
2022-12-05T03:02:30.464Z,4.60
2022-12-05T03:05:19.573Z,4.60
2022-12-05T03:07:50.243Z,4.60
2022-12-05T03:10:25.203Z,4.70
2022-12-05T03:13:04.635Z,4.70
2022-12-05T03:15:36.295Z,4.60
2022-12-05T03:18:23.516Z,4.70
2022-12-05T03:21:01.223Z,4.70
2022-12-05T03:23:34.893Z,4.50
2022-12-05T03:26:16.727Z,4.50
2022-12-05T03:29:10.524Z,4.40
2022-12-05T03:32:00.176Z,4.40
2022-12-05T03:34:42.134Z,4.40
2022-12-05T03:37:29.819Z,4.40
2022-12-05T03:40:14.539Z,4.40
2022-12-05T03:42:48.641Z,4.60
2022-12-05T03:45:25.861Z,4.60
2022-12-05T03:48:08.164Z,4.70
2022-12-05T03:50:43.152Z,4.70
2022-12-05T03:53:20.848Z,4.60
2022-12-05T03:56:03.527Z,4.70
2022-12-05T03:58:38.708Z,4.70
2022-12-05T04:01:11.279Z,4.70
2022-12-05T04:03:44.648Z,4.70
2022-12-05T04:06:23.165Z,4.70
2022-12-05T04:08:56.060Z,4.70
2022-12-05T04:11:27.848Z,4.80
2022-12-05T04:14:07.777Z,4.80
2022-12-05T04:17:05.418Z,4.80
2022-12-05T04:20:01.263Z,4.70
2022-12-05T04:22:36.707Z,4.60
2022-12-05T04:25:29.596Z,4.70
2022-12-05T04:28:09.909Z,4.70
2022-12-05T04:30:48.152Z,4.70
2022-12-05T04:33:20.271Z,4.60
2022-12-05T04:36:08.906Z,4.60
2022-12-05T04:38:48.603Z,4.50
2022-12-05T04:41:23.301Z,4.50
2022-12-05T04:43:52.487Z,4.60
2022-12-05T04:46:22.660Z,4.70
2022-12-05T04:48:57.889Z,4.70
2022-12-05T04:51:30.348Z,4.80
2022-12-05T04:54:16.218Z,4.80
2022-12-05T04:56:47.783Z,4.80
2022-12-05T04:59:19.607Z,4.90
2022-12-05T05:01:51.914Z,4.80
2022-12-05T05:04:28.489Z,4.80
2022-12-05T05:07:03.512Z,4.80
2022-12-05T05:09:32.011Z,4.80
2022-12-05T05:12:00.198Z,4.80
2022-12-05T05:14:27.184Z,4.90
2022-12-05T05:16:54.150Z,4.90
2022-12-05T05:19:28.716Z,4.90
2022-12-05T05:21:58.638Z,4.90
2022-12-05T05:24:32.439Z,4.90
2022-12-05T05:27:05.661Z,5.00
2022-12-05T05:29:32.545Z,4.90
2022-12-05T05:31:59.721Z,4.90
2022-12-05T05:34:29.904Z,4.90
2022-12-05T05:36:59.996Z,4.90
2022-12-05T05:39:29.367Z,4.90
2022-12-05T05:42:00.794Z,4.90
2022-12-05T05:44:29.663Z,4.90
2022-12-05T05:46:58.022Z,4.90
2022-12-05T05:49:25.261Z,4.90
2022-12-05T05:51:53.392Z,4.80
2022-12-05T05:54:22.437Z,4.90
2022-12-05T05:56:49.402Z,4.90
2022-12-05T05:59:27.542Z,4.90
2022-12-05T06:02:00.258Z,5.00
2022-12-05T06:04:29.854Z,4.80
2022-12-05T06:06:56.835Z,4.80
2022-12-05T06:09:23.898Z,4.80
2022-12-05T06:11:56.707Z,4.80
2022-12-05T06:14:27.354Z,4.80
2022-12-05T06:16:59.620Z,4.80
2022-12-05T06:19:29.814Z,4.80
2022-12-05T06:22:06.123Z,4.80
2022-12-05T06:24:47.825Z,4.80
2022-12-05T06:27:15.010Z,4.80
2022-12-05T06:29:45.697Z,4.80
2022-12-05T06:32:12.602Z,4.90
2022-12-05T06:34:48.543Z,4.90
2022-12-05T06:37:23.221Z,4.90
2022-12-05T06:39:52.043Z,4.90
2022-12-05T06:42:19.156Z,4.90
2022-12-05T06:45:01.026Z,4.90
2022-12-05T06:47:30.394Z,5.00
2022-12-05T06:49:57.740Z,4.90
2022-12-05T06:52:25.877Z,4.90
2022-12-05T06:54:54.584Z,4.90
2022-12-05T06:57:24.677Z,4.80
2022-12-05T07:00:17.490Z,4.80
2022-12-05T07:02:44.788Z,4.80
2022-12-05T07:05:14.030Z,4.80
2022-12-05T07:07:41.103Z,4.80
2022-12-05T07:10:09.025Z,4.90
2022-12-05T07:12:38.673Z,5.00
2022-12-05T07:15:08.317Z,5.10
2022-12-05T07:17:42.910Z,5.10
2022-12-05T07:20:14.701Z,4.90
2022-12-05T07:22:41.706Z,4.90
2022-12-05T07:25:12.099Z,4.90
2022-12-05T07:27:39.089Z,4.90
2022-12-05T07:30:14.621Z,4.80
2022-12-05T07:32:42.972Z,4.80
2022-12-05T07:35:12.432Z,4.80
2022-12-05T07:37:39.541Z,4.80
2022-12-05T07:40:11.278Z,4.80
2022-12-05T07:42:38.364Z,4.80
2022-12-05T07:45:08.723Z,4.90
2022-12-05T07:47:44.310Z,5.00
2022-12-05T07:50:15.112Z,5.00
2022-12-05T07:52:46.487Z,4.90
2022-12-05T07:55:22.066Z,4.90
2022-12-05T07:57:49.088Z,5.00
2022-12-05T08:00:23.915Z,5.00
2022-12-05T08:02:57.111Z,5.00
2022-12-05T08:05:25.325Z,5.00
2022-12-05T08:07:54.427Z,4.90
2022-12-05T08:10:25.234Z,5.00
2022-12-05T08:12:52.526Z,5.00
2022-12-05T08:15:22.756Z,5.00
2022-12-05T08:17:53.765Z,5.00
2022-12-05T08:20:25.496Z,5.10
2022-12-05T08:22:53.516Z,5.10
2022-12-05T08:25:23.623Z,5.00
2022-12-05T08:27:53.584Z,5.00
2022-12-05T08:30:24.936Z,5.00
2022-12-05T08:32:52.561Z,5.10
2022-12-05T08:35:24.719Z,5.20
2022-12-05T08:37:56.539Z,5.20
2022-12-05T08:40:28.810Z,5.20
2022-12-05T08:42:55.793Z,5.20
2022-12-05T08:45:32.622Z,5.20
2022-12-05T08:48:02.150Z,5.20
2022-12-05T08:50:36.071Z,5.30
2022-12-05T08:53:09.330Z,5.30
2022-12-05T08:55:42.308Z,5.20
2022-12-05T08:58:11.468Z,5.20
2022-12-05T09:00:41.866Z,5.20
2022-12-05T09:03:11.276Z,5.20
2022-12-05T09:05:38.316Z,5.20
2022-12-05T09:08:08.380Z,5.20
2022-12-05T09:10:37.312Z,5.20
2022-12-05T09:13:13.448Z,5.20
2022-12-05T09:15:41.736Z,5.20
2022-12-05T09:18:12.654Z,5.30
2022-12-05T09:20:39.997Z,5.30
2022-12-05T09:23:16.255Z,5.30
2022-12-05T09:25:45.116Z,5.30
2022-12-05T09:28:19.409Z,5.30
2022-12-05T09:30:58.308Z,5.30
2022-12-05T09:33:28.610Z,5.40
2022-12-05T09:35:59.350Z,5.40
2022-12-05T09:38:29.594Z,5.40
2022-12-05T09:41:12.784Z,5.40
2022-12-05T09:44:05.538Z,5.40
2022-12-05T09:46:48.360Z,5.40
2022-12-05T09:49:27.455Z,5.40
2022-12-05T09:51:56.461Z,5.40
2022-12-05T09:54:25.211Z,5.40
2022-12-05T09:56:53.259Z,5.50
2022-12-05T09:59:26.229Z,5.40
2022-12-05T10:02:04.851Z,5.30
2022-12-05T10:05:00.121Z,5.40
2022-12-05T10:07:41.179Z,5.40
2022-12-05T10:10:30.889Z,5.40
2022-12-05T10:13:26.462Z,5.50
2022-12-05T10:16:07.669Z,5.50
2022-12-05T10:18:43.978Z,5.50
2022-12-05T10:21:17.854Z,5.50
2022-12-05T10:23:58.741Z,5.50
2022-12-05T10:26:30.970Z,5.50
2022-12-05T10:29:09.402Z,5.50
2022-12-05T10:31:48.204Z,5.40
2022-12-05T10:34:30.197Z,5.50
2022-12-05T10:37:05.275Z,5.50
2022-12-05T10:39:32.226Z,5.50
2022-12-05T10:42:03.235Z,5.60
2022-12-05T10:44:33.441Z,5.60
2022-12-05T10:47:03.094Z,5.60
2022-12-05T10:49:37.656Z,5.60
2022-12-05T10:52:09.666Z,5.60
2022-12-05T10:54:50.089Z,5.60
2022-12-05T10:57:30.194Z,5.60
2022-12-05T10:59:59.075Z,5.60
2022-12-05T11:02:31.315Z,5.60
2022-12-05T11:05:04.621Z,5.70
2022-12-05T11:07:35.801Z,5.70
2022-12-05T11:10:28.584Z,5.70
2022-12-05T11:13:00.461Z,5.60
2022-12-05T11:15:31.030Z,5.50
2022-12-05T11:18:22.365Z,5.60
2022-12-05T11:20:53.911Z,5.60
2022-12-05T11:23:29.057Z,5.60
2022-12-05T11:26:00.527Z,5.60
2022-12-05T11:28:35.844Z,5.60
2022-12-05T11:31:08.622Z,5.70
2022-12-05T11:33:36.754Z,5.70
2022-12-05T11:36:21.750Z,5.60
2022-12-05T11:38:54.800Z,5.70
2022-12-05T11:41:46.914Z,5.70
2022-12-05T11:44:35.554Z,5.70
2022-12-05T11:47:20.350Z,5.70
2022-12-05T11:50:20.077Z,5.80
2022-12-05T11:53:17.646Z,5.80
2022-12-05T11:55:51.972Z,5.80
2022-12-05T11:58:54.500Z,5.80
2022-12-05T12:01:48.877Z,5.80
2022-12-05T12:04:48.951Z,5.70
2022-12-05T12:07:50.108Z,5.70
2022-12-05T12:10:50.111Z,5.70
2022-12-05T12:13:42.531Z,5.70
2022-12-05T12:16:18.954Z,5.80
2022-12-05T12:19:17.090Z,5.80
2022-12-05T12:22:09.015Z,5.90
2022-12-05T12:24:55.813Z,6.30
2022-12-05T12:27:51.164Z,6.40
2022-12-05T12:30:23.017Z,6.60
2022-12-05T12:33:24.035Z,6.50
2022-12-05T12:36:03.349Z,6.30
2022-12-05T12:42:17.036Z,6.20
2022-12-05T12:45:32.636Z,6.20
2022-12-05T12:48:19.435Z,6.00
2022-12-05T12:50:53.122Z,6.00
2022-12-05T12:53:58.111Z,6.10
2022-12-05T12:56:48.877Z,6.20
2022-12-05T12:59:50.342Z,6.20
2022-12-05T13:02:32.470Z,6.00
2022-12-05T13:05:07.085Z,6.00
2022-12-05T13:07:47.111Z,6.00
2022-12-05T13:10:29.387Z,5.90
2022-12-05T13:12:59.743Z,6.00
2022-12-05T13:15:35.655Z,6.00
2022-12-05T13:18:14.222Z,6.00
2022-12-05T13:20:43.374Z,6.00
2022-12-05T13:23:23.389Z,6.10
2022-12-05T13:25:51.919Z,6.10
2022-12-05T13:28:35.407Z,6.20
2022-12-05T13:31:10.725Z,6.20
2022-12-05T13:33:49.635Z,6.10
2022-12-05T13:36:38.742Z,6.20
2022-12-05T13:39:39.873Z,6.20
2022-12-05T13:42:37.876Z,6.10
2022-12-05T13:45:24.967Z,6.00
2022-12-05T13:48:09.875Z,6.10
2022-12-05T13:50:53.238Z,6.10
2022-12-05T13:53:49.535Z,6.10
2022-12-05T13:56:50.908Z,6.20
2022-12-05T14:00:04.789Z,6.00
2022-12-05T14:02:57.136Z,6.00
2022-12-05T14:05:55.154Z,6.00
2022-12-05T14:08:57.324Z,6.10
2022-12-05T14:11:24.595Z,6.20
2022-12-05T14:13:58.026Z,6.00
2022-12-05T14:16:54.911Z,6.00
2022-12-05T14:19:56.353Z,6.00
2022-12-05T14:23:17.913Z,6.10
2022-12-05T14:26:19.211Z,6.10
2022-12-05T14:29:24.294Z,6.20
2022-12-05T14:32:11.845Z,6.20
2022-12-05T14:35:19.226Z,6.20
2022-12-05T14:37:53.647Z,6.10
2022-12-05T14:40:36.978Z,6.00
2022-12-05T14:43:27.854Z,6.10
2022-12-05T14:46:08.794Z,6.20
2022-12-05T14:48:47.656Z,6.10
2022-12-05T14:52:08.254Z,6.10
2022-12-05T14:54:50.653Z,6.10
2022-12-05T14:57:41.680Z,6.10
2022-12-05T15:00:24.054Z,6.10
2022-12-05T15:02:57.273Z,6.10
2022-12-05T15:05:31.120Z,6.00
2022-12-05T15:08:07.364Z,6.00
2022-12-05T15:10:46.921Z,6.10
2022-12-05T15:13:20.445Z,6.10
2022-12-05T15:16:03.012Z,6.00
2022-12-05T15:18:56.707Z,6.10
2022-12-05T15:21:33.305Z,5.90
2022-12-05T15:24:05.999Z,5.90
2022-12-05T15:26:56.078Z,6.00
2022-12-05T15:29:30.840Z,5.90
2022-12-05T15:32:09.177Z,5.80
2022-12-05T15:34:53.064Z,5.70
2022-12-05T15:40:20.621Z,5.90
2022-12-05T15:42:56.939Z,5.90
2022-12-05T15:45:31.857Z,5.90
2022-12-05T15:48:23.003Z,5.90
2022-12-05T15:50:55.823Z,6.00
2022-12-05T15:53:39.908Z,6.00
2022-12-05T15:56:16.913Z,6.00
2022-12-05T15:59:12.875Z,6.10
2022-12-05T16:01:44.604Z,6.10
2022-12-05T16:07:16.355Z,6.10
2022-12-05T16:09:53.639Z,6.10
2022-12-05T16:12:37.180Z,6.10
2022-12-05T16:15:17.855Z,6.10
2022-12-05T16:17:54.727Z,6.10
2022-12-05T16:20:34.120Z,6.00
2022-12-05T16:23:13.371Z,6.10
2022-12-05T16:25:45.723Z,6.10
2022-12-05T16:28:21.624Z,6.20
2022-12-05T16:31:19.399Z,6.20
2022-12-05T16:33:47.954Z,6.20
2022-12-05T16:36:21.613Z,6.10
2022-12-05T16:39:06.241Z,6.20
2022-12-05T16:41:50.699Z,6.20
2022-12-05T16:45:03.571Z,6.10
2022-12-05T16:48:31.085Z,6.20
2022-12-05T16:51:24.221Z,6.20
2022-12-05T16:53:58.834Z,6.10
2022-12-05T16:56:32.781Z,6.20
2022-12-05T16:59:26.539Z,6.20
2022-12-05T17:01:53.550Z,6.20
2022-12-05T17:04:23.244Z,6.10
2022-12-05T17:06:54.996Z,6.20
2022-12-05T17:09:27.901Z,6.10
2022-12-05T17:12:15.877Z,6.10
2022-12-05T17:14:48.162Z,6.10
2022-12-05T17:17:19.500Z,6.20
2022-12-05T17:19:51.729Z,6.20
2022-12-05T17:22:26.370Z,6.20
2022-12-05T17:25:00.666Z,6.20
2022-12-05T17:27:28.112Z,6.10
2022-12-05T17:30:04.095Z,6.30
2022-12-05T17:32:31.064Z,6.30
2022-12-05T17:35:05.158Z,6.40
2022-12-05T17:37:39.238Z,6.40
2022-12-05T17:40:08.572Z,6.30
2022-12-05T17:42:46.153Z,6.20
2022-12-05T17:45:15.692Z,6.10
2022-12-05T17:47:54.127Z,6.10
2022-12-05T17:50:36.674Z,6.00
2022-12-05T17:53:07.336Z,6.10
2022-12-05T17:55:41.138Z,6.00
2022-12-05T17:58:12.624Z,6.00
2022-12-05T18:00:44.096Z,5.90
2022-12-05T18:03:26.704Z,6.00
2022-12-05T18:05:58.012Z,6.10
2022-12-05T18:08:32.486Z,6.10
2022-12-05T18:11:02.836Z,6.10
2022-12-05T18:13:32.300Z,6.10
2022-12-05T18:15:59.718Z,6.00
2022-12-05T18:18:29.179Z,6.10
2022-12-05T18:21:16.622Z,6.20
2022-12-05T18:23:47.242Z,6.20
2022-12-05T18:26:15.099Z,6.10
2022-12-05T18:28:44.367Z,6.00
2022-12-05T18:31:16.175Z,6.00
2022-12-05T18:33:45.878Z,6.10
2022-12-05T18:36:23.588Z,6.10
2022-12-05T18:38:54.783Z,6.20
2022-12-05T18:41:27.426Z,6.00
2022-12-05T18:44:00.620Z,6.00
2022-12-05T18:46:40.984Z,6.00
2022-12-05T18:49:14.389Z,6.00
2022-12-05T18:51:48.522Z,6.00
2022-12-05T18:54:18.508Z,6.00
2022-12-05T18:56:56.902Z,6.00
2022-12-05T18:59:32.298Z,6.00
2022-12-05T19:02:05.240Z,6.00
2022-12-05T19:04:32.421Z,6.00
2022-12-05T19:07:05.223Z,6.10
2022-12-05T19:09:38.519Z,6.20
2022-12-05T19:12:10.503Z,6.30
2022-12-05T19:14:51.290Z,6.30
2022-12-05T19:17:26.476Z,6.30
2022-12-05T19:20:03.144Z,6.40
2022-12-05T19:22:34.372Z,6.40
2022-12-05T19:25:07.269Z,6.30
2022-12-05T19:27:42.903Z,6.40
2022-12-05T19:30:11.174Z,6.40
2022-12-05T19:32:55.129Z,6.40
2022-12-05T19:35:25.375Z,6.30
2022-12-05T19:37:54.907Z,6.40
2022-12-05T19:40:25.657Z,6.40
2022-12-05T19:42:52.642Z,6.50
2022-12-05T19:45:32.379Z,6.40
2022-12-05T19:48:06.974Z,6.40
2022-12-05T19:50:36.791Z,6.40
2022-12-05T19:53:10.100Z,6.40
2022-12-05T19:55:39.088Z,6.40
2022-12-05T19:58:08.868Z,6.40
2022-12-05T20:00:42.608Z,6.40
2022-12-05T20:03:13.402Z,6.40
2022-12-05T20:05:51.527Z,6.40
2022-12-05T20:08:20.130Z,6.40
2022-12-05T20:10:48.322Z,6.40
2022-12-05T20:13:45.829Z,6.40
2022-12-05T20:16:18.009Z,6.50
2022-12-05T20:18:48.071Z,6.50
2022-12-05T20:21:28.073Z,6.50
2022-12-05T20:24:07.813Z,6.50
2022-12-05T20:26:45.831Z,6.50
2022-12-05T20:29:24.650Z,6.50
2022-12-05T20:31:56.422Z,6.50
2022-12-05T20:34:27.274Z,6.50
2022-12-05T20:36:58.894Z,6.50
2022-12-05T20:39:29.434Z,6.50
2022-12-05T20:42:13.087Z,6.60
2022-12-05T20:44:43.186Z,6.60
2022-12-05T20:47:15.740Z,6.60
2022-12-05T20:49:45.764Z,6.60
2022-12-05T20:52:20.599Z,6.50
2022-12-05T20:55:01.119Z,6.50
2022-12-05T20:57:30.813Z,6.60
2022-12-05T21:00:13.132Z,6.50
2022-12-05T21:02:47.765Z,6.60
2022-12-05T21:05:20.530Z,6.60
2022-12-05T21:08:03.563Z,6.60
2022-12-05T21:10:36.684Z,6.60
2022-12-05T21:13:19.897Z,6.60
2022-12-05T21:15:47.069Z,6.60
2022-12-05T21:18:17.301Z,6.60
2022-12-05T21:21:02.121Z,6.60
2022-12-05T21:23:38.168Z,6.50
2022-12-05T21:26:21.871Z,6.50
2022-12-05T21:29:03.687Z,6.50
2022-12-05T21:31:38.125Z,6.40
2022-12-05T21:34:17.896Z,6.50
2022-12-05T21:36:49.384Z,6.40
2022-12-05T21:39:20.474Z,6.50
2022-12-05T21:41:54.747Z,6.40
2022-12-05T21:44:21.763Z,6.10
2022-12-05T21:46:54.595Z,6.10
2022-12-05T21:49:23.330Z,6.20
2022-12-05T21:52:03.210Z,6.10
2022-12-05T21:54:40.369Z,6.20
2022-12-05T21:57:20.834Z,6.20
2022-12-05T21:59:51.327Z,6.20
2022-12-05T22:02:23.022Z,6.20
2022-12-05T22:07:38.116Z,6.40
2022-12-05T22:10:19.336Z,6.40
2022-12-05T22:12:59.542Z,6.50
2022-12-05T22:15:35.576Z,6.50
2022-12-05T22:18:11.057Z,6.50
2022-12-05T22:20:41.074Z,6.40
2022-12-05T22:23:13.853Z,6.40
2022-12-05T22:25:50.301Z,6.40
2022-12-05T22:28:24.005Z,6.40
2022-12-05T22:31:00.081Z,6.40
2022-12-05T22:33:36.514Z,6.30
2022-12-05T22:36:11.737Z,6.40
2022-12-05T22:38:43.242Z,6.30
2022-12-05T22:41:21.421Z,6.30
2022-12-05T22:43:59.011Z,6.40
2022-12-05T22:46:37.878Z,6.40
2022-12-05T22:49:08.363Z,6.40
2022-12-05T22:51:58.602Z,6.40
2022-12-05T22:54:32.193Z,6.40
2022-12-05T22:57:11.751Z,6.40
2022-12-05T22:59:46.641Z,6.40
2022-12-05T23:02:25.446Z,6.30
2022-12-05T23:05:00.848Z,6.40
2022-12-05T23:07:35.719Z,6.40
2022-12-05T23:10:11.592Z,6.40
2022-12-05T23:15:24.985Z,6.40
2022-12-05T23:17:53.618Z,6.40
2022-12-05T23:20:26.248Z,6.40
2022-12-05T23:22:58.950Z,6.40
2022-12-05T23:25:32.974Z,6.40
2022-12-05T23:28:05.769Z,6.20
2022-12-05T23:30:35.306Z,6.10
2022-12-05T23:33:11.651Z,6.10
2022-12-05T23:35:53.030Z,6.20
2022-12-05T23:38:25.741Z,6.30
2022-12-05T23:41:12.304Z,6.30
2022-12-05T23:43:54.729Z,6.20
2022-12-05T23:46:32.195Z,6.30
2022-12-05T23:49:10.700Z,6.30
2022-12-05T23:51:42.027Z,6.30
2022-12-05T23:54:30.122Z,6.40
2022-12-05T23:57:06.227Z,6.30
2022-12-05T23:59:42.304Z,6.30
